Time;durP1;ratioP1;P1;durP2;ratioP2;P2;SDS_P1;SDS_P2;PMS_P1;PMS_P2;Temp;Humidity;BMP_temperature;BMP_pressure;BME280_temperature;BME280_humidity;BME280_pressure;Samples;Min_cycle;Max_cycle;Signal;HPM_P1;HPM_P2
2022/11/19 00:01:05;;;;;;;0.40;0.30;;;7.00;99.90;;;;;;5124253;27;20439;-79
2022/11/19 00:03:34;;;;;;;0.30;0.20;;;7.00;99.90;;;;;;5123791;27;20462;-79
2022/11/19 00:06:09;;;;;;;0.30;0.30;;;7.00;99.90;;;;;;5123661;27;20463;-79
2022/11/19 00:08:36;;;;;;;0.30;0.30;;;7.00;99.90;;;;;;5124435;27;20431;-79
2022/11/19 00:11:05;;;;;;;0.40;0.37;;;6.90;99.90;;;;;;5124138;27;20454;-78
2022/11/19 00:13:32;;;;;;;0.30;0.30;;;6.90;99.90;;;;;;5124468;27;20474;-78
2022/11/19 00:16:04;;;;;;;0.30;0.30;;;6.80;99.90;;;;;;5123311;27;20435;-78
2022/11/19 00:18:31;;;;;;;0.63;0.50;;;6.80;99.90;;;;;;5122812;27;20479;-78
2022/11/19 00:21:08;;;;;;;0.30;0.30;;;6.70;99.90;;;;;;5125945;27;20458;-78
2022/11/19 00:23:36;;;;;;;0.30;0.30;;;6.70;99.90;;;;;;5125841;27;20493;-78
2022/11/19 00:26:08;;;;;;;0.33;0.30;;;6.70;99.90;;;;;;5123594;27;20476;-77
2022/11/19 00:28:35;;;;;;;0.73;0.30;;;6.60;99.90;;;;;;5123445;27;20926;-78
2022/11/19 00:31:04;;;;;;;0.30;0.30;;;6.60;99.90;;;;;;5123043;27;20479;-78
2022/11/19 00:33:31;;;;;;;0.60;0.40;;;6.60;99.90;;;;;;5127664;27;20471;-78
2022/11/19 00:35:58;;;;;;;0.30;0.30;;;6.60;99.90;;;;;;5126384;27;20438;-78
2022/11/19 00:38:26;;;;;;;0.30;0.30;;;6.60;99.90;;;;;;5123457;27;20471;-78
2022/11/19 00:40:53;;;;;;;1.00;0.33;;;6.60;99.90;;;;;;5126639;27;20918;-78
2022/11/19 00:46:06;;;;;;;0.40;0.30;;;6.60;99.90;;;;;;5125366;27;20403;-79
2022/11/19 00:48:33;;;;;;;0.40;0.40;;;6.60;99.90;;;;;;5119719;27;21007;-77
2022/11/19 00:50:59;;;;;;;0.30;0.30;;;6.60;99.90;;;;;;5114419;28;20796;-77
2022/11/19 00:53:27;;;;;;;0.30;0.23;;;6.60;99.90;;;;;;5114329;28;20470;-77
2022/11/19 00:55:54;;;;;;;0.30;0.20;;;6.60;99.90;;;;;;5114330;28;20537;-77
2022/11/19 00:58:21;;;;;;;0.30;0.27;;;6.60;99.90;;;;;;5114244;28;20489;-77
2022/11/19 01:00:50;;;;;;;0.40;0.30;;;6.60;99.90;;;;;;5114319;28;20443;-77
2022/11/19 01:03:16;;;;;;;0.40;0.33;;;6.70;99.90;;;;;;5114187;28;20550;-78
2022/11/19 01:05:43;;;;;;;0.40;0.30;;;6.70;99.90;;;;;;5113951;28;20447;-77
2022/11/19 01:08:10;;;;;;;0.30;0.30;;;6.70;99.90;;;;;;5113869;28;20539;-77
2022/11/19 01:10:38;;;;;;;0.40;0.30;;;6.80;99.90;;;;;;5114147;28;20500;-77
2022/11/19 01:15:51;;;;;;;0.30;0.20;;;6.80;99.90;;;;;;5114447;28;20454;-77
2022/11/19 01:18:18;;;;;;;7.43;0.60;;;6.70;99.90;;;;;;5113730;28;20488;-78
2022/11/19 01:20:46;;;;;;;0.30;0.20;;;6.80;99.90;;;;;;5114060;28;20432;-77
2022/11/19 01:23:13;;;;;;;0.30;0.30;;;6.70;99.90;;;;;;5113895;28;20467;-78
2022/11/19 01:25:41;;;;;;;0.30;0.23;;;6.70;99.90;;;;;;5113936;28;20439;-78
2022/11/19 01:28:08;;;;;;;0.30;0.20;;;6.60;99.90;;;;;;5113894;28;20440;-78
2022/11/19 01:30:35;;;;;;;0.30;0.30;;;6.70;99.90;;;;;;5113892;28;20442;-78
2022/11/19 01:33:01;;;;;;;0.30;0.20;;;6.60;99.90;;;;;;5113493;28;20986;-77
2022/11/19 01:35:28;;;;;;;2.93;0.60;;;6.60;99.90;;;;;;5113808;28;20448;-78
2022/11/19 01:37:55;;;;;;;0.30;0.30;;;6.70;99.90;;;;;;5113726;28;20443;-77
2022/11/19 01:40:22;;;;;;;0.37;0.37;;;6.70;99.90;;;;;;5113812;28;20455;-77
2022/11/19 01:42:50;;;;;;;0.93;0.30;;;6.70;99.90;;;;;;5113417;28;20818;-78
2022/11/19 01:45:32;;;;;;;0.30;0.30;;;6.70;99.90;;;;;;5113988;28;20485;-78
2022/11/19 01:48:02;;;;;;;0.30;0.30;;;6.60;99.90;;;;;;5113456;28;20514;-78
2022/11/19 01:50:32;;;;;;;3.03;0.90;;;6.60;99.90;;;;;;5113413;28;20434;-78
2022/11/19 01:52:59;;;;;;;0.40;0.40;;;6.60;99.90;;;;;;5113643;28;20468;-78
2022/11/19 01:55:27;;;;;;;0.30;0.30;;;6.70;99.90;;;;;;5114121;27;20784;-78
2022/11/19 01:57:58;;;;;;;1.73;0.90;;;6.70;99.90;;;;;;5113537;28;20474;-78
2022/11/19 02:00:25;;;;;;;0.57;0.37;;;6.70;99.90;;;;;;5113636;28;20440;-78
2022/11/19 02:02:52;;;;;;;0.50;0.43;;;6.70;99.90;;;;;;5113516;28;20447;-78
2022/11/19 02:05:19;;;;;;;0.30;0.30;;;6.70;99.90;;;;;;5113659;28;20454;-78
2022/11/19 02:07:53;;;;;;;0.87;0.47;;;6.70;99.90;;;;;;5113531;28;20441;-78
2022/11/19 02:10:25;;;;;;;0.50;0.40;;;6.70;99.90;;;;;;5113621;28;20431;-78
2022/11/19 02:13:02;;;;;;;0.43;0.30;;;6.70;99.90;;;;;;5113450;28;20436;-78
2022/11/19 02:15:40;;;;;;;0.43;0.40;;;6.70;99.90;;;;;;5113531;28;20466;-78
2022/11/19 02:18:44;;;;;;;0.30;0.30;;;6.70;99.90;;;;;;5113883;28;20430;-78
2022/11/19 02:21:20;;;;;;;0.40;0.30;;;6.70;99.90;;;;;;5074363;28;20413;-78
2022/11/19 02:24:38;;;;;;;0.40;0.37;;;6.80;99.90;;;;;;5074424;28;20469;-78
2022/11/19 02:27:34;;;;;;;0.40;0.40;;;6.80;99.90;;;;;;5083188;27;20841;-78
2022/11/19 02:30:09;;;;;;;0.40;0.40;;;6.80;99.90;;;;;;5117239;28;20509;-78
2022/11/19 02:32:47;;;;;;;2.50;0.77;;;6.70;99.90;;;;;;5117137;28;20434;-78
2022/11/19 02:35:19;;;;;;;0.50;0.50;;;6.70;99.90;;;;;;5116858;28;20531;-78
2022/11/19 02:37:53;;;;;;;0.40;0.30;;;6.70;99.90;;;;;;5117041;28;20442;-78
2022/11/19 02:40:24;;;;;;;0.40;0.40;;;6.70;99.90;;;;;;5116948;28;20515;-78
2022/11/19 02:42:58;;;;;;;0.30;0.20;;;6.70;99.90;;;;;;5116859;28;20438;-78
2022/11/19 02:45:30;;;;;;;0.40;0.30;;;6.70;99.90;;;;;;5117487;28;20438;-78
2022/11/19 02:48:01;;;;;;;0.30;0.30;;;6.70;99.90;;;;;;5116563;28;20911;-78
2022/11/19 02:50:33;;;;;;;0.40;0.37;;;6.70;99.90;;;;;;5116795;28;20442;-78
2022/11/19 02:53:01;;;;;;;0.33;0.30;;;6.70;99.90;;;;;;5116674;28;20845;-78
2022/11/19 02:55:28;;;;;;;0.30;0.30;;;6.70;99.90;;;;;;5116681;28;20448;-78
2022/11/19 02:58:03;;;;;;;0.30;0.30;;;6.70;99.90;;;;;;5116626;27;20449;-78
2022/11/19 03:06:15;;;;;;;0.30;0.20;;;6.60;99.90;;;;;;5116629;28;20425;-78
2022/11/19 03:08:42;;;;;;;0.60;0.40;;;6.60;99.90;;;;;;5116489;28;20427;-78
2022/11/19 03:11:19;;;;;;;0.50;0.30;;;6.60;99.90;;;;;;5116136;28;20427;-78
2022/11/19 03:16:42;;;;;;;0.30;0.20;;;6.60;99.90;;;;;;5116367;28;20468;-78
2022/11/19 03:19:31;;;;;;;0.30;0.30;;;6.60;99.90;;;;;;5115884;28;20494;-78
2022/11/19 03:22:00;;;;;;;0.30;0.20;;;6.70;99.90;;;;;;5116303;28;20428;-78
2022/11/19 03:24:30;;;;;;;0.40;0.30;;;6.70;99.90;;;;;;5116060;28;20470;-78
2022/11/19 03:27:02;;;;;;;2.63;0.50;;;6.70;99.90;;;;;;5115782;28;20906;-78
2022/11/19 03:29:32;;;;;;;0.30;0.30;;;6.70;99.90;;;;;;5115625;28;20431;-78
2022/11/19 03:32:04;;;;;;;0.30;0.30;;;6.60;99.90;;;;;;5115726;28;20427;-78
2022/11/19 03:34:33;;;;;;;0.30;0.30;;;6.70;99.90;;;;;;5115918;28;20815;-78
2022/11/19 03:37:02;;;;;;;0.77;0.70;;;6.60;99.90;;;;;;5115881;28;20439;-78
2022/11/19 03:39:29;;;;;;;0.37;0.27;;;6.60;99.90;;;;;;5115764;28;20506;-78
2022/11/19 03:41:57;;;;;;;0.30;0.30;;;6.70;99.90;;;;;;5115464;28;20447;-78
2022/11/19 03:44:30;;;;;;;0.40;0.30;;;6.70;99.90;;;;;;5115360;28;20962;-78
2022/11/19 03:47:02;;;;;;;0.40;0.40;;;6.70;99.90;;;;;;5115739;28;20775;-78
2022/11/19 03:49:34;;;;;;;1.07;0.40;;;6.80;99.90;;;;;;5115669;28;20424;-78
2022/11/19 03:52:06;;;;;;;0.60;0.37;;;6.70;99.90;;;;;;5115270;28;20432;-78
2022/11/19 03:54:34;;;;;;;0.30;0.20;;;6.60;99.90;;;;;;5115168;28;20463;-77
2022/11/19 03:57:02;;;;;;;0.30;0.30;;;6.60;99.90;;;;;;5115475;28;20450;-77
2022/11/19 03:59:29;;;;;;;0.30;0.20;;;6.60;99.90;;;;;;5115351;28;20479;-78
2022/11/19 04:02:01;;;;;;;0.30;0.20;;;6.50;99.90;;;;;;5115963;28;20439;-78
2022/11/19 04:04:38;;;;;;;1.60;0.40;;;6.50;99.90;;;;;;5115299;28;20471;-78
2022/11/19 04:07:06;;;;;;;0.40;0.30;;;6.60;99.90;;;;;;5115429;28;20467;-77
2022/11/19 04:09:33;;;;;;;0.37;0.37;;;6.60;99.90;;;;;;5115208;28;20842;-78
2022/11/19 04:12:00;;;;;;;0.40;0.40;;;6.60;99.90;;;;;;5115173;27;20439;-77
2022/11/19 04:14:27;;;;;;;0.40;0.30;;;6.60;99.90;;;;;;5115014;28;20459;-78
2022/11/19 04:16:54;;;;;;;0.30;0.30;;;6.50;99.90;;;;;;5115103;28;20786;-77
2022/11/19 04:19:21;;;;;;;0.40;0.40;;;6.60;99.90;;;;;;5114676;28;20487;-78
2022/11/19 04:21:49;;;;;;;1.73;0.47;;;6.60;99.90;;;;;;5114628;28;20443;-77
2022/11/19 04:24:16;;;;;;;1.33;0.50;;;6.60;99.90;;;;;;5114824;28;20468;-77
2022/11/19 04:26:43;;;;;;;0.50;0.50;;;6.60;99.90;;;;;;5114566;28;20941;-77
2022/11/19 04:29:10;;;;;;;0.97;0.40;;;6.70;99.90;;;;;;5114830;28;20440;-77
2022/11/19 04:31:36;;;;;;;1.03;0.43;;;6.60;99.90;;;;;;5114449;28;20961;-77
2022/11/19 04:34:03;;;;;;;0.30;0.30;;;6.70;99.90;;;;;;5114688;28;20554;-77
2022/11/19 04:36:30;;;;;;;0.40;0.40;;;6.70;99.90;;;;;;5114619;28;20962;-77
2022/11/19 04:38:58;;;;;;;0.30;0.20;;;6.60;99.90;;;;;;5114621;28;20480;-77
2022/11/19 04:41:25;;;;;;;0.70;0.50;;;6.60;99.90;;;;;;5113798;28;20439;-77
2022/11/19 04:43:52;;;;;;;0.37;0.27;;;6.60;99.90;;;;;;5114507;28;20464;-76
2022/11/19 04:46:19;;;;;;;0.30;0.30;;;6.60;99.90;;;;;;5114256;28;20526;-77
2022/11/19 04:48:46;;;;;;;0.40;0.30;;;6.50;99.90;;;;;;5114149;28;20942;-76
2022/11/19 04:51:13;;;;;;;0.30;0.30;;;6.50;99.90;;;;;;5114360;28;20957;-77
2022/11/19 04:53:39;;;;;;;0.30;0.30;;;6.50;99.90;;;;;;5114346;28;20467;-77
2022/11/19 04:56:07;;;;;;;0.37;0.30;;;6.50;99.90;;;;;;5114377;28;20444;-77
2022/11/19 04:58:35;;;;;;;0.63;0.30;;;6.50;99.90;;;;;;5114358;28;20451;-77
2022/11/19 05:01:02;;;;;;;0.33;0.33;;;6.40;99.90;;;;;;5113987;28;20984;-77
2022/11/19 05:03:29;;;;;;;0.50;0.43;;;6.40;99.90;;;;;;5114178;28;20833;-77
2022/11/19 05:05:55;;;;;;;0.40;0.40;;;6.40;99.90;;;;;;5114233;28;20439;-77
2022/11/19 05:08:23;;;;;;;0.40;0.40;;;6.40;99.90;;;;;;5114179;28;20450;-77
2022/11/19 05:10:50;;;;;;;0.30;0.20;;;6.40;99.90;;;;;;5114184;28;20443;-77
2022/11/19 05:13:18;;;;;;;0.33;0.27;;;6.40;99.90;;;;;;5113783;28;20978;-76
2022/11/19 05:15:45;;;;;;;0.30;0.20;;;6.40;99.90;;;;;;5114331;28;20439;-77
2022/11/19 05:18:12;;;;;;;0.60;0.40;;;6.40;99.90;;;;;;5113602;28;20446;-77
2022/11/19 05:20:39;;;;;;;2.63;0.53;;;6.40;99.90;;;;;;5113554;28;20886;-76
2022/11/19 05:23:06;;;;;;;0.40;0.30;;;6.40;99.90;;;;;;5113929;28;20474;-76
2022/11/19 05:25:33;;;;;;;0.50;0.40;;;6.50;99.90;;;;;;5114214;28;20451;-76
2022/11/19 05:27:59;;;;;;;0.30;0.20;;;6.50;99.90;;;;;;5114181;28;20446;-76
2022/11/19 05:30:28;;;;;;;0.30;0.30;;;6.50;99.90;;;;;;5113887;28;20442;-77
2022/11/19 05:32:54;;;;;;;0.30;0.27;;;6.50;99.90;;;;;;5113514;28;20927;-76
2022/11/19 05:35:21;;;;;;;0.30;0.30;;;6.40;99.90;;;;;;5113858;28;20785;-76
2022/11/19 05:37:49;;;;;;;0.40;0.30;;;6.40;99.90;;;;;;5113552;28;20954;-76
2022/11/19 05:40:16;;;;;;;0.37;0.33;;;6.40;99.90;;;;;;5113410;28;20476;-76
2022/11/19 05:42:43;;;;;;;0.30;0.27;;;6.50;99.90;;;;;;5113693;28;20443;-76
2022/11/19 05:45:11;;;;;;;0.30;0.20;;;6.40;99.90;;;;;;5113451;28;20927;-76
2022/11/19 05:47:39;;;;;;;0.40;0.33;;;6.40;99.90;;;;;;5113428;28;20944;-76
2022/11/19 05:50:06;;;;;;;0.30;0.27;;;6.40;99.90;;;;;;5113938;28;20443;-76
2022/11/19 05:52:33;;;;;;;0.30;0.30;;;6.40;99.90;;;;;;5115987;28;20444;-76
2022/11/19 05:55:00;;;;;;;0.40;0.30;;;6.40;99.90;;;;;;5117863;28;20463;-76
2022/11/19 05:57:27;;;;;;;0.30;0.30;;;6.50;99.90;;;;;;5117817;28;20447;-76
2022/11/19 05:59:53;;;;;;;0.30;0.30;;;6.50;99.90;;;;;;5117702;28;20482;-76
2022/11/19 06:02:20;;;;;;;0.40;0.30;;;6.50;99.90;;;;;;5117420;28;20452;-76
2022/11/19 06:04:49;;;;;;;0.30;0.30;;;6.50;99.90;;;;;;5117611;28;20469;-76
2022/11/19 06:07:15;;;;;;;0.90;0.50;;;6.50;99.90;;;;;;5117623;28;20447;-76
2022/11/19 06:09:42;;;;;;;0.30;0.30;;;6.50;99.90;;;;;;5117592;28;20435;-76
2022/11/19 06:12:09;;;;;;;0.50;0.43;;;6.50;99.90;;;;;;5117519;28;20443;-76
2022/11/19 06:14:36;;;;;;;0.30;0.30;;;6.50;99.90;;;;;;5117114;28;20468;-76
2022/11/19 06:17:02;;;;;;;0.40;0.40;;;6.50;99.90;;;;;;5117436;28;20446;-76
2022/11/19 06:19:29;;;;;;;7.63;0.40;;;6.50;99.90;;;;;;5116982;28;20491;-76
2022/11/19 06:21:57;;;;;;;0.30;0.30;;;6.50;99.90;;;;;;5117353;28;20443;-76
2022/11/19 06:24:24;;;;;;;0.30;0.30;;;6.50;99.90;;;;;;5116931;28;20550;-76
2022/11/19 06:26:51;;;;;;;0.30;0.30;;;6.50;99.90;;;;;;5116959;28;20959;-76
2022/11/19 06:29:18;;;;;;;0.30;0.30;;;6.50;99.90;;;;;;5117217;28;20807;-76
2022/11/19 06:31:45;;;;;;;0.30;0.30;;;6.50;99.90;;;;;;5116828;28;20836;-76
2022/11/19 06:34:12;;;;;;;0.37;0.27;;;6.60;99.90;;;;;;5117026;28;20485;-76
2022/11/19 06:36:39;;;;;;;0.30;0.30;;;6.50;99.90;;;;;;5117038;28;20444;-76
2022/11/19 06:39:07;;;;;;;0.40;0.30;;;6.50;99.90;;;;;;5116939;28;20832;-76
2022/11/19 06:41:34;;;;;;;0.30;0.27;;;6.40;99.90;;;;;;5116920;27;20475;-76
2022/11/19 06:44:01;;;;;;;0.30;0.20;;;6.40;99.90;;;;;;5116537;28;21004;-76
2022/11/19 06:46:28;;;;;;;1.17;0.30;;;6.40;99.90;;;;;;5116895;28;20447;-76
2022/11/19 06:48:55;;;;;;;0.70;0.30;;;6.40;99.90;;;;;;5116728;27;20465;-76
2022/11/19 06:51:21;;;;;;;0.30;0.30;;;6.30;99.90;;;;;;5116814;28;20462;-77
2022/11/19 06:53:48;;;;;;;0.40;0.30;;;6.30;99.90;;;;;;5116915;28;20459;-77
2022/11/19 06:56:16;;;;;;;0.30;0.30;;;6.30;99.90;;;;;;5116687;28;20439;-77
2022/11/19 06:58:43;;;;;;;0.40;0.30;;;6.30;99.90;;;;;;5116597;28;20443;-77
2022/11/19 07:01:10;;;;;;;0.30;0.30;;;6.20;99.90;;;;;;5116548;28;20479;-77
2022/11/19 07:03:36;;;;;;;0.30;0.27;;;6.20;99.90;;;;;;5115348;28;20993;-77
2022/11/19 07:06:05;;;;;;;0.30;0.30;;;6.20;99.90;;;;;;5116514;28;20466;-77
2022/11/19 07:08:34;;;;;;;0.60;0.27;;;6.30;99.90;;;;;;5116168;28;20934;-77
2022/11/19 07:11:24;;;;;;;0.30;0.20;;;6.30;99.90;;;;;;5116417;27;20448;-77
2022/11/19 07:13:58;;;;;;;0.30;0.23;;;6.30;99.90;;;;;;5115867;28;21009;-77
2022/11/19 07:16:29;;;;;;;0.30;0.20;;;6.40;99.90;;;;;;5116036;28;20428;-77
2022/11/19 07:18:58;;;;;;;0.30;0.30;;;6.40;99.90;;;;;;5115965;27;20990;-77
2022/11/19 07:21:25;;;;;;;0.30;0.30;;;6.40;99.90;;;;;;5115856;28;21023;-77
2022/11/19 07:23:52;;;;;;;0.77;0.40;;;6.40;99.90;;;;;;5116333;28;20467;-77
2022/11/19 07:26:19;;;;;;;0.30;0.20;;;6.40;99.90;;;;;;5116099;28;20443;-77
2022/11/19 07:28:46;;;;;;;0.30;0.30;;;6.30;99.90;;;;;;5116020;28;20448;-77
2022/11/19 07:31:14;;;;;;;0.40;0.40;;;6.40;99.90;;;;;;5115980;28;20451;-77
2022/11/19 07:33:41;;;;;;;0.30;0.20;;;6.50;99.90;;;;;;5132346;27;20463;-77
2022/11/19 07:36:09;;;;;;;0.30;0.20;;;6.50;99.90;;;;;;5136475;27;20443;-77
2022/11/19 07:38:37;;;;;;;0.30;0.20;;;6.50;99.90;;;;;;5136091;27;20925;-77
2022/11/19 07:42:47;;;;;;;0.83;0.37;;;6.70;99.90;;;;;;5122388;27;20475;-77
2022/11/19 07:43:52;;;;;;;0.30;0.30;;;6.70;99.90;;;;;;5115262;28;20509;-77
2022/11/19 07:46:20;;;;;;;0.30;0.20;;;6.70;99.90;;;;;;5115389;27;20440;-76
2022/11/19 07:48:47;;;;;;;0.30;0.30;;;6.80;99.90;;;;;;5115672;28;20451;-76
2022/11/19 07:51:14;;;;;;;0.70;0.40;;;6.80;99.90;;;;;;5115700;28;20443;-76
2022/11/19 07:53:41;;;;;;;0.30;0.20;;;6.90;99.90;;;;;;5115500;28;20468;-76
2022/11/19 07:56:09;;;;;;;0.87;0.40;;;7.00;99.90;;;;;;5115508;28;20497;-76
2022/11/19 07:58:35;;;;;;;0.30;0.30;;;7.00;99.90;;;;;;5115533;28;20448;-76
2022/11/19 08:01:07;;;;;;;0.30;0.20;;;7.00;99.90;;;;;;5115607;28;20487;-76
2022/11/19 08:03:36;;;;;;;0.30;0.30;;;7.00;99.90;;;;;;5115360;28;20471;-76
2022/11/19 08:06:03;;;;;;;0.30;0.30;;;7.00;99.90;;;;;;5115339;28;20443;-76
2022/11/19 08:08:30;;;;;;;0.30;0.30;;;7.00;99.90;;;;;;5115249;28;20439;-76
2022/11/19 08:10:57;;;;;;;0.40;0.30;;;7.20;99.90;;;;;;5115213;28;20444;-76
2022/11/19 08:13:24;;;;;;;0.30;0.30;;;7.30;99.90;;;;;;5115111;28;20474;-76
2022/11/19 08:15:50;;;;;;;0.30;0.30;;;7.40;99.90;;;;;;5114834;27;20443;-76
2022/11/19 08:18:16;;;;;;;0.40;0.30;;;7.40;99.90;;;;;;5115078;28;20447;-76
2022/11/19 08:20:47;;;;;;;0.40;0.40;;;7.50;99.90;;;;;;5114508;28;20495;-76
2022/11/19 08:23:14;;;;;;;0.30;0.30;;;7.40;99.90;;;;;;5114801;28;20978;-76
2022/11/19 08:25:43;;;;;;;0.30;0.27;;;7.40;99.90;;;;;;5114891;28;20447;-76
2022/11/19 08:28:10;;;;;;;0.30;0.20;;;7.40;99.90;;;;;;5114886;28;20439;-76
2022/11/19 08:30:39;;;;;;;0.30;0.20;;;7.40;99.90;;;;;;5114837;28;20436;-76
2022/11/19 08:33:06;;;;;;;0.30;0.30;;;7.40;99.90;;;;;;5114708;28;20467;-76
2022/11/19 08:35:33;;;;;;;0.30;0.30;;;7.50;99.90;;;;;;5114762;28;20443;-76
2022/11/19 08:38:01;;;;;;;0.40;0.30;;;7.60;99.90;;;;;;5114743;28;20440;-76
2022/11/19 08:40:28;;;;;;;0.40;0.30;;;7.60;99.90;;;;;;5114361;27;20524;-76
2022/11/19 08:43:00;;;;;;;0.70;0.50;;;7.70;99.90;;;;;;5114237;28;20949;-76
2022/11/19 08:45:28;;;;;;;0.30;0.30;;;7.90;99.90;;;;;;5114990;28;20511;-76
2022/11/19 08:47:55;;;;;;;0.30;0.30;;;8.00;99.90;;;;;;5114634;28;20458;-76
2022/11/19 08:50:22;;;;;;;0.30;0.30;;;8.10;99.90;;;;;;5114536;28;20469;-76
2022/11/19 08:52:54;;;;;;;0.40;0.40;;;8.20;99.90;;;;;;5114084;28;20943;-76
2022/11/19 08:55:22;;;;;;;0.40;0.40;;;8.10;99.90;;;;;;5114433;28;20428;-76
2022/11/19 08:57:49;;;;;;;0.90;0.37;;;8.10;99.90;;;;;;5114357;28;20440;-76
2022/11/19 09:00:18;;;;;;;0.40;0.40;;;8.20;99.90;;;;;;5113917;28;20482;-76
2022/11/19 09:02:46;;;;;;;0.30;0.30;;;8.30;99.90;;;;;;5114408;28;20451;-77
2022/11/19 09:05:13;;;;;;;0.30;0.30;;;8.40;99.90;;;;;;5114209;28;20447;-77
2022/11/19 09:07:39;;;;;;;0.40;0.30;;;8.50;99.90;;;;;;5114220;28;20449;-76
2022/11/19 09:10:07;;;;;;;0.40;0.40;;;8.60;99.90;;;;;;5114134;28;20435;-76
2022/11/19 09:12:35;;;;;;;0.30;0.30;;;8.70;99.90;;;;;;5114033;28;20439;-76
2022/11/19 09:15:02;;;;;;;0.30;0.30;;;8.70;99.90;;;;;;5113959;28;20459;-77
2022/11/19 09:17:29;;;;;;;0.30;0.20;;;9.10;99.90;;;;;;5113755;28;20931;-76
2022/11/19 09:19:56;;;;;;;0.40;0.30;;;9.40;99.90;;;;;;5113555;28;20478;-77
2022/11/19 09:22:23;;;;;;;0.40;0.30;;;9.60;99.90;;;;;;5113997;28;20440;-77
2022/11/19 09:24:49;;;;;;;0.30;0.30;;;9.50;99.90;;;;;;5113632;28;20470;-77
2022/11/19 09:27:16;;;;;;;0.30;0.30;;;9.30;99.90;;;;;;5113490;28;20440;-77
2022/11/19 09:29:44;;;;;;;0.30;0.30;;;9.20;99.90;;;;;;5113837;28;20440;-77
2022/11/19 09:32:11;;;;;;;0.30;0.20;;;9.30;99.90;;;;;;5113910;28;20424;-77
2022/11/19 09:34:39;;;;;;;0.30;0.20;;;9.40;99.90;;;;;;5113807;28;20466;-77
2022/11/19 09:37:06;;;;;;;0.30;0.30;;;9.50;99.90;;;;;;5113783;28;20478;-77
2022/11/19 09:39:33;;;;;;;0.47;0.30;;;9.60;99.90;;;;;;5113837;28;20454;-77
2022/11/19 09:42:11;;;;;;;0.30;0.30;;;9.50;99.90;;;;;;5113332;28;21023;-77
2022/11/19 09:45:01;;;;;;;0.40;0.30;;;9.40;99.90;;;;;;5113161;28;21004;-77
2022/11/19 09:47:40;;;;;;;2.57;0.40;;;9.40;99.90;;;;;;5114289;28;20428;-77
2022/11/19 09:50:15;;;;;;;2.23;0.40;;;9.30;99.90;;;;;;5113701;28;20428;-77
2022/11/19 09:52:46;;;;;;;0.60;0.30;;;9.20;99.90;;;;;;5113313;28;20427;-77
2022/11/19 09:55:19;;;;;;;0.50;0.40;;;9.10;99.90;;;;;;5113706;28;20436;-77
2022/11/19 09:57:49;;;;;;;0.40;0.30;;;9.10;99.90;;;;;;5113613;28;20432;-77
2022/11/19 10:00:20;;;;;;;0.40;0.40;;;9.20;99.90;;;;;;5113590;28;20502;-77
2022/11/19 10:02:47;;;;;;;0.33;0.30;;;9.10;99.90;;;;;;5113549;28;20519;-77
2022/11/19 10:05:15;;;;;;;0.30;0.30;;;9.10;99.90;;;;;;5113575;28;20450;-77
2022/11/19 10:07:52;;;;;;;0.70;0.40;;;9.10;99.90;;;;;;5113549;28;20439;-77
2022/11/19 10:10:32;;;;;;;0.60;0.40;;;9.10;99.90;;;;;;5113540;28;20428;-77
2022/11/19 10:13:20;;;;;;;0.50;0.50;;;9.10;99.90;;;;;;5113157;28;20901;-77
2022/11/19 10:16:02;;;;;;;0.30;0.30;;;9.00;99.90;;;;;;5113513;28;20428;-77
2022/11/19 10:18:37;;;;;;;0.40;0.30;;;9.00;99.90;;;;;;5113428;28;20531;-77
2022/11/19 10:21:08;;;;;;;0.30;0.30;;;8.90;99.90;;;;;;5113428;28;20550;-77
2022/11/19 10:23:48;;;;;;;0.50;0.37;;;8.90;99.90;;;;;;5113459;28;20471;-77
2022/11/19 10:26:17;;;;;;;0.30;0.30;;;8.80;99.90;;;;;;5113723;28;20436;-77
2022/11/19 10:28:52;;;;;;;0.30;0.30;;;8.70;99.90;;;;;;5113414;28;20428;-77
2022/11/19 10:31:28;;;;;;;0.73;0.30;;;8.70;99.90;;;;;;5113399;28;20424;-77
2022/11/19 10:34:02;;;;;;;0.30;0.30;;;8.70;99.90;;;;;;5112998;28;21004;-77
2022/11/19 10:36:33;;;;;;;0.40;0.37;;;8.60;99.90;;;;;;5113008;28;20434;-77
2022/11/19 10:39:06;;;;;;;0.40;0.30;;;8.70;99.90;;;;;;5114065;28;20477;-77
2022/11/19 10:41:37;;;;;;;0.30;0.30;;;8.80;99.90;;;;;;5117103;28;21023;-77
2022/11/19 10:44:36;;;;;;;0.43;0.40;;;8.80;99.90;;;;;;5116907;28;20818;-77
2022/11/19 10:47:04;;;;;;;0.30;0.30;;;9.10;99.90;;;;;;5116896;28;20450;-77
2022/11/19 10:49:36;;;;;;;0.30;0.30;;;9.50;99.90;;;;;;5116714;28;20534;-77
2022/11/19 10:52:03;;;;;;;0.40;0.30;;;10.00;99.90;;;;;;5117056;28;20430;-77
2022/11/19 10:54:31;;;;;;;0.40;0.30;;;10.40;99.90;;;;;;5116664;27;20491;-77
2022/11/19 10:57:00;;;;;;;0.30;0.30;;;10.70;99.90;;;;;;5116330;28;20822;-77
2022/11/19 10:59:30;;;;;;;0.40;0.30;;;10.90;99.90;;;;;;5116662;28;20440;-77
2022/11/19 11:02:03;;;;;;;0.33;0.27;;;11.20;99.90;;;;;;5116517;28;20962;-77
2022/11/19 11:04:31;;;;;;;0.47;0.30;;;11.20;99.90;;;;;;5116515;28;20467;-77
2022/11/19 11:06:59;;;;;;;0.30;0.30;;;11.20;99.90;;;;;;5116248;28;20424;-77
2022/11/19 11:09:32;;;;;;;0.30;0.30;;;11.20;99.90;;;;;;5116484;28;20435;-77
2022/11/19 11:14:53;;;;;;;0.47;0.47;;;11.10;99.90;;;;;;5116388;28;20513;-77
2022/11/19 11:17:22;;;;;;;0.60;0.30;;;11.00;99.90;;;;;;5116371;28;20434;-77
2022/11/19 11:19:58;;;;;;;0.40;0.30;;;10.90;99.90;;;;;;5115910;28;20846;-80
2022/11/19 11:22:26;;;;;;;1.07;0.30;;;10.80;99.90;;;;;;5116126;28;20468;-78
2022/11/19 11:24:53;;;;;;;0.40;0.30;;;10.90;99.90;;;;;;5116086;28;20486;-78
2022/11/19 11:27:22;;;;;;;0.40;0.30;;;10.90;99.90;;;;;;5115824;28;20489;-77
2022/11/19 11:29:48;;;;;;;0.40;0.30;;;10.90;99.90;;;;;;5115700;28;20805;-78
2022/11/19 11:32:29;;;;;;;0.30;0.30;;;10.80;99.90;;;;;;5116281;28;20440;-78
2022/11/19 11:34:57;;;;;;;0.40;0.30;;;10.90;99.90;;;;;;5115917;28;20464;-78
2022/11/19 11:37:26;;;;;;;0.30;0.30;;;10.90;99.90;;;;;;5115941;28;20505;-78
2022/11/19 11:39:55;;;;;;;0.30;0.20;;;11.00;99.90;;;;;;5115585;28;20452;-78
2022/11/19 11:42:25;;;;;;;0.40;0.30;;;11.10;99.90;;;;;;5115761;28;20480;-78
2022/11/19 11:44:54;;;;;;;0.40;0.30;;;11.20;99.90;;;;;;5115705;28;20475;-78
2022/11/19 11:47:25;;;;;;;0.40;0.30;;;11.10;99.90;;;;;;5115740;28;20439;-78
2022/11/19 11:50:05;;;;;;;0.60;0.60;;;11.00;99.90;;;;;;5115046;28;20436;-78
2022/11/19 11:52:36;;;;;;;0.40;0.30;;;10.80;99.90;;;;;;5115674;27;20428;-78
2022/11/19 11:55:06;;;;;;;3.80;0.40;;;10.70;99.90;;;;;;5115799;28;20474;-78
2022/11/19 11:57:35;;;;;;;0.30;0.20;;;10.50;99.90;;;;;;5115554;28;20428;-78
2022/11/19 12:00:23;;;;;;;0.30;0.30;;;10.30;99.90;;;;;;5115745;28;20451;-78
2022/11/19 12:02:59;;;;;;;0.30;0.30;;;10.20;99.90;;;;;;5114848;28;21012;-77
2022/11/19 12:05:31;;;;;;;0.60;0.30;;;9.90;99.90;;;;;;5115420;28;20439;-78
2022/11/19 12:08:04;;;;;;;0.30;0.30;;;9.90;99.90;;;;;;5115362;28;20432;-78
2022/11/19 12:10:40;;;;;;;0.40;0.37;;;9.80;99.90;;;;;;5115250;28;20535;-78
2022/11/19 12:13:40;;;;;;;0.30;0.20;;;9.70;99.90;;;;;;5113686;28;20973;-78
2022/11/19 12:16:13;;;;;;;0.30;0.30;;;9.60;99.90;;;;;;5106173;27;20900;-77
2022/11/19 12:18:53;;;;;;;0.30;0.30;;;9.60;99.90;;;;;;5114612;28;20432;-78
2022/11/19 12:21:34;;;;;;;0.30;0.30;;;9.50;99.90;;;;;;5114716;28;20464;-78
2022/11/19 12:24:22;;;;;;;0.30;0.30;;;9.40;99.90;;;;;;5115016;28;20798;-78
2022/11/19 12:26:57;;;;;;;0.40;0.30;;;9.30;99.90;;;;;;5115008;28;20432;-78
2022/11/19 12:29:29;;;;;;;0.30;0.30;;;9.30;99.90;;;;;;5114918;28;20423;-78
2022/11/19 12:32:08;;;;;;;4.73;0.43;;;9.20;99.90;;;;;;5114660;28;20424;-78
2022/11/19 12:35:03;;;;;;;0.40;0.30;;;9.20;99.90;;;;;;5114458;28;21036;-78
2022/11/19 12:37:47;;;;;;;0.40;0.30;;;9.20;99.90;;;;;;5114522;28;20439;-78
2022/11/19 12:40:29;;;;;;;0.30;0.30;;;9.20;99.90;;;;;;5114741;28;20432;-77
2022/11/19 12:43:07;;;;;;;0.30;0.30;;;9.20;99.90;;;;;;5114562;28;20474;-78
2022/11/19 12:45:42;;;;;;;0.30;0.30;;;9.20;99.90;;;;;;5114687;28;20454;-78
2022/11/19 12:48:36;;;;;;;0.30;0.30;;;9.10;99.90;;;;;;5114279;28;20911;-78
2022/11/19 12:51:10;;;;;;;0.30;0.20;;;9.10;99.90;;;;;;5114585;28;20465;-78
2022/11/19 12:53:52;;;;;;;0.30;0.30;;;9.10;99.90;;;;;;5114142;28;20835;-78
2022/11/19 12:56:32;;;;;;;0.43;0.43;;;9.00;99.90;;;;;;5114489;28;20432;-78
2022/11/19 12:59:08;;;;;;;0.47;0.30;;;9.00;99.90;;;;;;5114456;28;20464;-78
2022/11/19 13:01:40;;;;;;;0.30;0.30;;;8.90;99.90;;;;;;5113624;28;20472;-78
2022/11/19 13:04:14;;;;;;;0.30;0.20;;;8.90;99.90;;;;;;5113897;28;20838;-78
2022/11/19 13:06:44;;;;;;;0.30;0.30;;;8.90;99.90;;;;;;5114498;28;20435;-78
2022/11/19 13:09:18;;;;;;;0.30;0.20;;;9.00;99.90;;;;;;5114310;28;20428;-78
2022/11/19 13:11:50;;;;;;;0.30;0.20;;;8.90;99.90;;;;;;5113886;28;20937;-78
2022/11/19 13:14:26;;;;;;;0.50;0.40;;;8.90;99.90;;;;;;5114086;28;20472;-77
2022/11/19 13:16:55;;;;;;;0.30;0.30;;;8.90;99.90;;;;;;5114152;28;20438;-78
2022/11/19 13:19:26;;;;;;;0.30;0.20;;;8.90;99.90;;;;;;5113708;28;20478;-78
2022/11/19 13:21:56;;;;;;;0.50;0.40;;;8.90;99.90;;;;;;5113997;28;20468;-78
2022/11/19 13:24:30;;;;;;;0.30;0.20;;;8.80;99.90;;;;;;5113652;28;20555;-78
2022/11/19 13:27:02;;;;;;;0.30;0.23;;;8.90;99.90;;;;;;5113653;28;20865;-78
2022/11/19 13:29:37;;;;;;;0.30;0.30;;;8.90;99.90;;;;;;5113950;28;20424;-78